createdAt,value
2023-01-05T00:01:25.148Z,154.70
2023-01-05T00:05:27.954Z,131.15
2023-01-05T00:09:30.711Z,226.68
2023-01-05T00:13:52.073Z,315.90
2023-01-05T00:18:13.293Z,369.63
2023-01-05T00:22:30.692Z,299.77
2023-01-05T00:26:33.700Z,213.07
2023-01-05T00:30:43.433Z,225.93
2023-01-05T00:34:47.290Z,227.85
2023-01-05T00:38:50.356Z,135.82
2023-01-05T00:42:53.255Z,132.30
2023-01-05T00:46:56.052Z,254.57
2023-01-05T00:50:58.826Z,166.20
2023-01-05T00:55:01.572Z,167.63
2023-01-05T00:59:04.454Z,186.55
2023-01-05T01:03:07.348Z,177.43
2023-01-05T01:07:10.114Z,317.83
2023-01-05T01:11:13.220Z,363.90
2023-01-05T01:15:16.297Z,393.50
2023-01-05T01:19:22.584Z,194.00
2023-01-05T01:23:25.679Z,182.15
2023-01-05T01:27:31.005Z,105.35
2023-01-05T01:31:35.582Z,90.65
2023-01-05T01:35:38.718Z,119.22
2023-01-05T01:39:41.580Z,88.13
2023-01-05T01:43:53.474Z,81.68
2023-01-05T01:48:00.842Z,64.57
2023-01-05T01:52:03.893Z,83.55
2023-01-05T01:56:10.687Z,56.05
2023-01-05T02:00:15.014Z,63.03
2023-01-05T02:04:21.702Z,47.65
2023-01-05T02:08:42.359Z,41.65
2023-01-05T02:13:13.068Z,65.45
2023-01-05T02:17:38.021Z,42.92
2023-01-05T02:22:02.756Z,72.05
2023-01-05T02:26:21.025Z,59.78
2023-01-05T02:30:59.523Z,67.55
2023-01-05T02:35:23.221Z,66.55
2023-01-05T02:39:34.827Z,52.55
2023-01-05T02:43:43.269Z,48.92
2023-01-05T02:47:46.198Z,44.05
2023-01-05T02:51:55.700Z,31.60
2023-01-05T02:56:23.891Z,38.08
2023-01-05T03:00:32.479Z,64.15
2023-01-05T03:04:53.445Z,69.32
2023-01-05T03:09:03.221Z,216.65
2023-01-05T03:13:27.364Z,140.32
2023-01-05T03:17:34.669Z,187.25
2023-01-05T03:21:56.504Z,93.45
2023-01-05T03:26:19.716Z,176.27
2023-01-05T03:30:52.261Z,132.73
2023-01-05T03:35:30.628Z,70.85
2023-01-05T03:39:35.971Z,65.63
2023-01-05T03:43:42.997Z,58.63
2023-01-05T03:47:46.029Z,104.13
2023-01-05T03:51:49.156Z,153.90
2023-01-05T03:55:52.412Z,346.80
2023-01-05T03:59:55.702Z,244.18
2023-01-05T04:03:58.925Z,95.93
2023-01-05T04:08:01.999Z,85.25
2023-01-05T04:12:05.563Z,116.72
2023-01-05T04:16:14.700Z,178.57
2023-01-05T04:20:18.550Z,100.53
2023-01-05T04:24:21.385Z,202.25
2023-01-05T04:28:25.106Z,117.75
2023-01-05T04:32:31.732Z,97.50
2023-01-05T04:36:34.608Z,51.05
2023-01-05T04:40:37.896Z,42.88
2023-01-05T04:44:40.809Z,46.08
2023-01-05T04:48:43.736Z,31.48
2023-01-05T04:52:46.898Z,73.97
2023-01-05T04:56:49.931Z,47.63
2023-01-05T05:00:53.526Z,33.22
2023-01-05T05:04:57.652Z,22.38
2023-01-05T05:09:00.583Z,26.83
2023-01-05T05:13:05.496Z,23.38
2023-01-05T05:17:08.291Z,23.95
2023-01-05T05:21:11.678Z,21.77
2023-01-05T05:25:15.920Z,21.10
2023-01-05T05:29:22.382Z,25.13
2023-01-05T05:33:25.819Z,24.67
2023-01-05T05:37:28.580Z,19.23
2023-01-05T05:41:31.478Z,26.45
2023-01-05T05:45:34.391Z,29.05
2023-01-05T05:49:37.138Z,21.73
2023-01-05T05:53:39.932Z,21.70
2023-01-05T05:57:42.661Z,25.17
2023-01-05T06:01:45.460Z,24.52
2023-01-05T06:05:48.334Z,25.88
2023-01-05T06:09:51.078Z,25.45
2023-01-05T06:13:53.981Z,23.80
2023-01-05T06:17:56.921Z,24.98
2023-01-05T06:21:59.684Z,24.08
2023-01-05T06:26:02.489Z,23.35
2023-01-05T06:30:05.716Z,28.15
2023-01-05T06:34:08.442Z,23.83
2023-01-05T06:38:11.379Z,21.73
2023-01-05T06:42:14.962Z,27.98
2023-01-05T06:46:19.761Z,34.85
2023-01-05T06:50:22.524Z,28.17
2023-01-05T06:54:25.243Z,29.65
2023-01-05T06:58:28.043Z,31.05
2023-01-05T07:02:30.829Z,27.05
2023-01-05T07:06:36.250Z,28.77
2023-01-05T07:10:39.010Z,27.90
2023-01-05T07:14:41.876Z,27.10
2023-01-05T07:18:44.829Z,32.67
2023-01-05T07:22:47.510Z,26.27
2023-01-05T07:26:50.409Z,25.63
2023-01-05T07:30:53.451Z,22.02
2023-01-05T07:34:56.355Z,25.77
2023-01-05T07:38:59.745Z,22.65
2023-01-05T07:43:02.931Z,17.85
2023-01-05T07:47:05.817Z,20.73
2023-01-05T07:51:10.121Z,22.05
2023-01-05T07:55:14.874Z,25.40
2023-01-05T07:59:18.083Z,25.45
2023-01-05T08:03:21.474Z,27.45
2023-01-05T08:07:24.463Z,23.58
2023-01-05T08:11:27.377Z,38.63
2023-01-05T08:15:30.084Z,29.40
2023-01-05T08:19:33.408Z,28.08
2023-01-05T08:23:38.213Z,31.27
2023-01-05T08:27:41.191Z,37.40
2023-01-05T08:31:44.273Z,32.67
2023-01-05T08:35:47.377Z,37.08
2023-01-05T08:39:50.851Z,30.15
2023-01-05T08:43:56.049Z,27.77
2023-01-05T08:47:58.857Z,33.03
2023-01-05T08:52:01.821Z,29.77
2023-01-05T08:56:04.868Z,37.45
2023-01-05T09:00:08.373Z,38.72
2023-01-05T09:04:11.225Z,37.88
2023-01-05T09:08:13.921Z,34.83
2023-01-05T09:12:17.109Z,33.38
2023-01-05T09:20:48.621Z,24.45
2023-01-05T09:24:51.984Z,22.92
2023-01-05T09:28:55.266Z,26.23
2023-01-05T09:32:58.181Z,26.85
2023-01-05T09:37:00.937Z,23.98
2023-01-05T09:41:16.571Z,22.25
2023-01-05T09:45:26.396Z,18.92
2023-01-05T09:49:31.132Z,12.30
2023-01-05T09:53:33.889Z,15.32
2023-01-05T09:57:36.796Z,12.60
2023-01-05T10:01:41.130Z,11.90
2023-01-05T10:05:45.438Z,13.15
2023-01-05T10:09:48.734Z,10.93
2023-01-05T10:14:09.012Z,14.40
2023-01-05T10:18:19.357Z,13.05
2023-01-05T10:22:36.800Z,10.70
2023-01-05T10:27:23.587Z,8.90
2023-01-05T10:31:24.108Z,11.48
2023-01-05T10:36:01.568Z,18.80
2023-01-05T10:40:18.068Z,15.23
2023-01-05T10:44:51.822Z,18.25
2023-01-05T10:48:54.630Z,18.98
2023-01-05T10:52:58.320Z,12.18
2023-01-05T10:57:34.824Z,12.18
2023-01-05T11:01:43.301Z,10.45
2023-01-05T11:05:49.508Z,16.30
2023-01-05T11:09:52.533Z,12.10
2023-01-05T11:13:57.510Z,13.90
2023-01-05T11:18:01.072Z,13.40
2023-01-05T11:22:03.885Z,18.83
2023-01-05T11:26:21.194Z,19.23
2023-01-05T11:30:25.504Z,20.02
2023-01-05T11:34:45.634Z,24.45
2023-01-05T11:38:54.746Z,21.20
2023-01-05T11:42:58.772Z,21.50
2023-01-05T11:47:01.650Z,18.90
2023-01-05T11:51:04.789Z,12.05
2023-01-05T11:55:33.077Z,11.90
2023-01-05T11:59:38.534Z,12.35
2023-01-05T12:04:01.459Z,11.57
2023-01-05T12:08:20.769Z,13.23
2023-01-05T12:12:44.800Z,10.52
2023-01-05T12:16:52.354Z,13.50
2023-01-05T12:21:17.286Z,14.27
2023-01-05T12:25:38.778Z,10.27
2023-01-05T12:31:59.450Z,9.60
2023-01-05T12:34:16.598Z,13.00
2023-01-05T12:38:33.489Z,9.50
2023-01-05T12:42:53.825Z,13.88
2023-01-05T12:47:14.715Z,11.20
2023-01-05T12:51:37.866Z,12.85
2023-01-05T12:55:51.730Z,11.60
2023-01-05T13:00:06.157Z,11.82
2023-01-05T13:04:31.059Z,16.52
2023-01-05T13:08:49.165Z,13.30
2023-01-05T13:12:59.593Z,12.43
2023-01-05T13:17:12.962Z,13.07
2023-01-05T13:21:16.467Z,15.00
2023-01-05T13:25:25.345Z,11.35
2023-01-05T13:29:33.322Z,11.32
2023-01-05T13:34:03.932Z,12.70
2023-01-05T13:38:25.036Z,13.73
2023-01-05T13:42:46.142Z,13.30
2023-01-05T13:47:27.748Z,9.50
2023-01-05T13:51:54.419Z,15.02
2023-01-05T13:56:01.156Z,12.95
2023-01-05T14:00:12.123Z,7.57
2023-01-05T14:04:32.665Z,11.10
2023-01-05T14:08:38.894Z,8.70
2023-01-05T14:12:44.752Z,11.27
2023-01-05T14:16:48.744Z,7.95
2023-01-05T14:20:54.436Z,9.02
2023-01-05T14:24:59.356Z,6.75
2023-01-05T14:29:02.151Z,8.98
2023-01-05T14:33:06.288Z,7.30
2023-01-05T14:37:34.830Z,9.25
2023-01-05T14:41:38.517Z,8.48
2023-01-05T14:45:41.602Z,8.25
2023-01-05T14:49:55.996Z,9.07
2023-01-05T14:54:03.303Z,9.13
2023-01-05T14:58:13.690Z,10.30
2023-01-05T15:02:24.770Z,10.88
2023-01-05T15:06:51.836Z,10.07
2023-01-05T15:11:16.400Z,19.80
2023-01-05T15:15:44.511Z,15.27
2023-01-05T15:20:24.637Z,14.32
2023-01-05T15:24:59.865Z,12.15
2023-01-05T15:29:27.393Z,12.30
2023-01-05T15:33:52.413Z,12.90
2023-01-05T15:37:55.303Z,12.90
2023-01-05T15:42:02.043Z,12.60
2023-01-05T15:46:05.696Z,15.60
2023-01-05T15:50:19.591Z,12.18
2023-01-05T15:54:31.183Z,14.68
2023-01-05T15:58:43.450Z,9.52
2023-01-05T16:02:46.237Z,15.27
2023-01-05T16:06:57.208Z,13.00
2023-01-05T16:11:05.991Z,16.45
2023-01-05T16:15:15.388Z,23.33
2023-01-05T16:19:34.667Z,16.33
2023-01-05T16:23:44.590Z,13.73
2023-01-05T16:27:51.344Z,10.40
2023-01-05T16:36:09.487Z,22.00
2023-01-05T16:40:21.701Z,19.58
2023-01-05T16:44:24.779Z,15.23
2023-01-05T16:48:50.913Z,12.65
2023-01-05T16:52:54.462Z,12.43
2023-01-05T16:57:01.594Z,10.57
2023-01-05T17:01:26.113Z,12.02
2023-01-05T17:05:32.632Z,14.10
2023-01-05T17:09:36.745Z,17.38
2023-01-05T17:13:49.560Z,13.52
2023-01-05T17:17:55.369Z,15.25
2023-01-05T17:22:04.494Z,13.93
2023-01-05T17:26:11.393Z,17.15
2023-01-05T17:30:20.422Z,13.00
2023-01-05T17:34:24.034Z,12.07
2023-01-05T17:38:26.850Z,12.85
2023-01-05T17:42:44.723Z,12.07
2023-01-05T17:46:48.100Z,14.02
2023-01-05T17:50:52.930Z,16.40
2023-01-05T17:54:59.553Z,13.25
2023-01-05T17:59:03.620Z,20.88
2023-01-05T18:03:06.361Z,20.50
2023-01-05T18:07:09.792Z,13.45
2023-01-05T18:11:13.164Z,15.38
2023-01-05T18:15:17.680Z,14.18
2023-01-05T18:19:20.613Z,15.75
2023-01-05T18:23:24.520Z,11.82
2023-01-05T18:27:27.310Z,16.25
2023-01-05T18:31:30.202Z,12.82
2023-01-05T18:35:34.080Z,16.13
2023-01-05T18:39:38.083Z,14.30
2023-01-05T18:43:41.143Z,14.77
2023-01-05T18:47:43.999Z,12.98
2023-01-05T18:51:49.571Z,14.88
2023-01-05T18:55:52.398Z,12.27
2023-01-05T18:59:55.283Z,13.60
2023-01-05T19:03:58.337Z,76.13
2023-01-05T19:08:01.427Z,31.73
2023-01-05T19:12:04.400Z,24.88
2023-01-05T19:16:09.136Z,35.47
2023-01-05T19:20:12.192Z,29.88
2023-01-05T19:24:25.106Z,32.05
2023-01-05T19:28:28.087Z,58.40
2023-01-05T19:32:33.059Z,31.15
2023-01-05T19:36:36.220Z,34.92
2023-01-05T19:40:39.003Z,32.45
2023-01-05T19:44:41.996Z,32.05
2023-01-05T19:48:45.556Z,28.83
2023-01-05T19:52:48.734Z,31.33
2023-01-05T19:56:52.051Z,39.55
2023-01-05T20:00:54.906Z,97.40
2023-01-05T20:04:58.080Z,38.35
2023-01-05T20:09:05.097Z,42.85
2023-01-05T20:13:08.529Z,39.47
2023-01-05T20:17:12.733Z,33.38
2023-01-05T20:21:15.521Z,80.07
2023-01-05T20:25:18.337Z,40.47
2023-01-05T20:29:22.949Z,60.00
2023-01-05T20:33:26.084Z,33.83
2023-01-05T20:37:31.397Z,39.58
2023-01-05T20:41:40.771Z,36.35
2023-01-05T20:45:43.840Z,38.80
2023-01-05T20:49:47.131Z,54.60
2023-01-05T20:53:51.569Z,39.35
2023-01-05T20:57:55.114Z,33.58
2023-01-05T21:01:59.132Z,35.72
2023-01-05T21:06:02.053Z,36.05
2023-01-05T21:10:05.037Z,40.10
2023-01-05T21:14:09.398Z,37.63
2023-01-05T21:18:12.310Z,35.92
2023-01-05T21:22:15.736Z,42.83
2023-01-05T21:26:19.260Z,223.73
2023-01-05T21:30:22.305Z,64.00
2023-01-05T21:34:25.964Z,47.53
2023-01-05T21:39:00.867Z,40.05
2023-01-05T21:42:51.975Z,37.03
2023-01-05T21:46:54.671Z,41.00
2023-01-05T21:51:17.544Z,37.10
2023-01-05T21:55:39.091Z,31.25
2023-01-05T21:59:42.639Z,38.10
2023-01-05T22:03:45.670Z,36.33
2023-01-05T22:07:48.532Z,40.05
2023-01-05T22:11:51.650Z,47.92
2023-01-05T22:15:54.981Z,51.17
2023-01-05T22:19:57.739Z,34.88
2023-01-05T22:24:00.543Z,40.47
2023-01-05T22:28:03.424Z,45.75
2023-01-05T22:32:06.659Z,63.38
2023-01-05T22:36:10.726Z,39.33
2023-01-05T22:40:14.243Z,35.50
2023-01-05T22:44:17.298Z,41.50
2023-01-05T22:48:20.546Z,42.47
2023-01-05T22:52:26.101Z,35.20
2023-01-05T22:56:31.821Z,34.78
2023-01-05T23:00:34.760Z,34.50
2023-01-05T23:04:38.141Z,36.25
2023-01-05T23:08:41.987Z,36.10
2023-01-05T23:12:44.812Z,44.67
2023-01-05T23:16:47.880Z,34.20
2023-01-05T23:20:59.728Z,31.10
2023-01-05T23:25:02.508Z,34.70
2023-01-05T23:29:05.536Z,34.35
2023-01-05T23:33:08.479Z,37.22
2023-01-05T23:37:11.304Z,36.20
2023-01-05T23:41:16.109Z,34.38
2023-01-05T23:45:19.232Z,28.90
2023-01-05T23:49:22.027Z,35.63
2023-01-05T23:53:26.249Z,39.70
2023-01-05T23:57:30.510Z,33.75
